Terminal Aerodrome Forecast
Issued by NWS

Home | Current Version | Previous Version | Text Only | Print | Product List | Glossary On
Versions: 1 2 3 4 5 6 7 8 9 10 11 12 13 14 15 16 17
000
FTUS43 KMPX 221725
TAFRNH
TAF
KRNH 221725Z 2218/2318 33012G18KT P6SM BKN025
     FM222100 34010KT P6SM SCT030
     FM230000 34007KT P6SM SKC
     FM231500 35007KT P6SM SCT040=

USA.gov is the U.S. government's official web portal to all federal, state and local government web resources and services.